Time;durP1;ratioP1;P1;durP2;ratioP2;P2;SDS_P1;SDS_P2;PMS_P1;PMS_P2;Temp;Humidity;BMP_temperature;BMP_pressure;BME280_temperature;BME280_humidity;BME280_pressure;Samples;Min_cycle;Max_cycle;Signal;HPM_P1;HPM_P2
2022/03/12 00:00:58;;;;;;;18.63;13.00;;;;;;;;;;5054314;28;20421;-64
2022/03/12 00:03:24;;;;;;;16.47;11.47;;;;;;;;;;5054142;28;20410;-66
2022/03/12 00:05:54;;;;;;;15.50;10.93;;;;;;;;;;5054427;28;20410;-62
2022/03/12 00:08:21;;;;;;;20.20;12.10;;;;;;;;;;5052929;28;20461;-64
2022/03/12 00:10:50;;;;;;;20.03;12.20;;;;;;;;;;5054251;28;20414;-62
2022/03/12 00:13:19;;;;;;;18.67;11.30;;;;;;;;;;5054034;28;20400;-63
2022/03/12 00:15:47;;;;;;;16.37;11.60;;;;;;;;;;5054154;28;20404;-75
2022/03/12 00:18:16;;;;;;;18.73;11.83;;;;;;;;;;5054067;28;20397;-65
2022/03/12 00:20:47;;;;;;;20.70;12.07;;;;;;;;;;5054005;28;20433;-76
2022/03/12 00:23:16;;;;;;;16.63;11.00;;;;;;;;;;5053901;28;20404;-73
2022/03/12 00:25:44;;;;;;;16.27;11.00;;;;;;;;;;5053839;28;20452;-70
2022/03/12 00:28:10;;;;;;;20.33;13.03;;;;;;;;;;5052585;28;20409;-72
2022/03/12 00:30:36;;;;;;;20.67;11.93;;;;;;;;;;5053690;28;20415;-72
2022/03/12 00:33:02;;;;;;;21.40;11.50;;;;;;;;;;5053685;28;20410;-73
2022/03/12 00:35:28;;;;;;;22.17;12.07;;;;;;;;;;5053665;28;20427;-75
2022/03/12 00:37:55;;;;;;;18.77;12.33;;;;;;;;;;5053755;28;20439;-73
2022/03/12 00:40:21;;;;;;;19.30;12.33;;;;;;;;;;5053673;28;20472;-77
2022/03/12 00:42:47;;;;;;;20.60;11.87;;;;;;;;;;5053573;28;20488;-76
2022/03/12 00:45:13;;;;;;;19.17;12.20;;;;;;;;;;5053451;28;20417;-75
2022/03/12 00:47:40;;;;;;;19.60;12.90;;;;;;;;;;5053503;28;20423;-76
2022/03/12 00:50:06;;;;;;;21.27;12.40;;;;;;;;;;5053456;28;20991;-76
2022/03/12 00:52:32;;;;;;;19.30;13.03;;;;;;;;;;5053469;28;20421;-76
2022/03/12 00:54:58;;;;;;;17.97;11.57;;;;;;;;;;5053311;28;20449;-75
2022/03/12 00:57:24;;;;;;;22.03;11.17;;;;;;;;;;5052791;28;20441;-76
2022/03/12 00:59:50;;;;;;;18.37;11.90;;;;;;;;;;5053240;28;20414;-76
2022/03/12 01:02:17;;;;;;;17.00;11.73;;;;;;;;;;5053346;28;20522;-68
2022/03/12 01:04:44;;;;;;;21.87;12.37;;;;;;;;;;5053048;28;20798;-66
2022/03/12 01:07:11;;;;;;;21.63;12.20;;;;;;;;;;5053289;28;20436;-66
2022/03/12 01:09:38;;;;;;;20.90;11.50;;;;;;;;;;5051810;28;20566;-61
2022/03/12 01:12:04;;;;;;;21.30;11.87;;;;;;;;;;5052823;28;20409;-61
2022/03/12 01:14:30;;;;;;;15.03;11.40;;;;;;;;;;5053103;28;20440;-62
2022/03/12 01:17:01;;;;;;;19.50;12.00;;;;;;;;;;5053264;28;20410;-67
2022/03/12 01:19:27;;;;;;;18.60;11.70;;;;;;;;;;5053117;28;20425;-75
2022/03/12 01:21:53;;;;;;;17.40;11.97;;;;;;;;;;5053130;28;20405;-74
2022/03/12 01:24:20;;;;;;;18.50;11.80;;;;;;;;;;5053041;28;20915;-76
2022/03/12 01:26:46;;;;;;;20.03;11.73;;;;;;;;;;5053135;28;20401;-76
2022/03/12 01:29:12;;;;;;;19.70;11.53;;;;;;;;;;5052951;28;21015;-72
2022/03/12 01:31:38;;;;;;;21.27;12.20;;;;;;;;;;5053004;28;20481;-75
2022/03/12 01:34:04;;;;;;;18.40;11.77;;;;;;;;;;5053076;28;20406;-75
2022/03/12 01:36:31;;;;;;;16.70;10.60;;;;;;;;;;5052886;28;20413;-75
2022/03/12 01:38:58;;;;;;;24.73;11.00;;;;;;;;;;5052988;28;20770;-75
2022/03/12 01:41:29;;;;;;;24.70;11.90;;;;;;;;;;5052900;28;20418;-76
2022/03/12 01:43:57;;;;;;;17.70;11.13;;;;;;;;;;5052943;28;20428;-75
2022/03/12 01:46:29;;;;;;;21.63;11.00;;;;;;;;;;5052939;28;20905;-75
2022/03/12 01:48:59;;;;;;;19.37;11.27;;;;;;;;;;5052767;28;20493;-76
2022/03/12 01:51:25;;;;;;;26.20;10.80;;;;;;;;;;5052688;28;20393;-76
2022/03/12 01:53:51;;;;;;;15.50;10.87;;;;;;;;;;5052689;28;20425;-76
2022/03/12 01:56:18;;;;;;;16.93;12.07;;;;;;;;;;5053361;28;20461;-75
2022/03/12 01:58:45;;;;;;;18.83;11.33;;;;;;;;;;5052781;28;20400;-67
2022/03/12 02:01:11;;;;;;;17.53;10.97;;;;;;;;;;5052663;28;20808;-61
2022/03/12 02:03:37;;;;;;;23.90;10.10;;;;;;;;;;5052504;28;20414;-64
2022/03/12 02:06:05;;;;;;;22.63;11.37;;;;;;;;;;5052600;28;20416;-64
2022/03/12 02:08:31;;;;;;;16.73;10.90;;;;;;;;;;5053727;28;20450;-63
2022/03/12 02:10:59;;;;;;;22.90;11.37;;;;;;;;;;5056311;28;20417;-62
2022/03/12 02:13:25;;;;;;;15.90;10.80;;;;;;;;;;5056579;28;20413;-63
2022/03/12 02:15:59;;;;;;;15.67;9.33;;;;;;;;;;5056502;28;20421;-63
2022/03/12 02:18:25;;;;;;;15.60;10.53;;;;;;;;;;5056341;28;20409;-75
2022/03/12 02:20:51;;;;;;;16.77;11.07;;;;;;;;;;5056090;28;20447;-72
2022/03/12 02:23:18;;;;;;;21.77;10.00;;;;;;;;;;5056052;28;20449;-75
2022/03/12 02:25:44;;;;;;;17.90;10.30;;;;;;;;;;5056238;28;20881;-63
2022/03/12 02:28:17;;;;;;;19.80;11.80;;;;;;;;;;5056098;28;20464;-72
2022/03/12 02:30:55;;;;;;;16.73;10.67;;;;;;;;;;5055965;28;20421;-67
2022/03/12 02:33:27;;;;;;;14.70;10.27;;;;;;;;;;5054744;28;20745;-67
2022/03/12 02:35:53;;;;;;;23.13;10.77;;;;;;;;;;5054737;28;20911;-68
2022/03/12 02:38:21;;;;;;;13.73;9.87;;;;;;;;;;5056185;28;20746;-69
2022/03/12 02:40:50;;;;;;;15.70;10.20;;;;;;;;;;5055866;28;20400;-64
2022/03/12 02:43:21;;;;;;;21.00;11.50;;;;;;;;;;5055887;28;20397;-65
2022/03/12 02:45:50;;;;;;;17.73;10.77;;;;;;;;;;5055954;28;20516;-65
2022/03/12 02:48:16;;;;;;;17.90;10.70;;;;;;;;;;5055687;28;20416;-65
2022/03/12 02:50:43;;;;;;;18.60;10.00;;;;;;;;;;5055576;28;20529;-76
2022/03/12 02:53:09;;;;;;;21.77;10.47;;;;;;;;;;5055699;28;20404;-76
2022/03/12 02:55:36;;;;;;;16.80;10.73;;;;;;;;;;5055659;28;20464;-71
2022/03/12 02:58:09;;;;;;;19.93;11.10;;;;;;;;;;5055560;28;20893;-75
2022/03/12 03:00:36;;;;;;;15.47;10.50;;;;;;;;;;5055511;28;20898;-75
2022/03/12 03:03:03;;;;;;;17.17;10.93;;;;;;;;;;5055389;28;20502;-67
2022/03/12 03:05:38;;;;;;;20.70;10.40;;;;;;;;;;5055329;28;20554;-70
2022/03/12 03:08:05;;;;;;;16.37;10.40;;;;;;;;;;5055429;28;20405;-67
2022/03/12 03:10:34;;;;;;;14.33;10.27;;;;;;;;;;5055304;28;20488;-63
2022/03/12 03:13:16;;;;;;;18.10;10.53;;;;;;;;;;5055380;28;20727;-62
2022/03/12 03:15:46;;;;;;;16.20;10.33;;;;;;;;;;5055322;28;20906;-68
2022/03/12 03:18:13;;;;;;;15.00;9.33;;;;;;;;;;5055208;28;20485;-75
2022/03/12 03:20:39;;;;;;;15.97;10.00;;;;;;;;;;5054397;28;20439;-76
2022/03/12 03:23:07;;;;;;;14.50;9.30;;;;;;;;;;5055207;28;20410;-75
2022/03/12 03:25:33;;;;;;;18.87;11.83;;;;;;;;;;5055164;28;20447;-75
2022/03/12 03:27:59;;;;;;;14.50;9.90;;;;;;;;;;5055116;28;20747;-75
2022/03/12 03:30:25;;;;;;;15.40;11.10;;;;;;;;;;5054914;28;20514;-75
2022/03/12 03:32:51;;;;;;;18.90;11.30;;;;;;;;;;5054844;28;20885;-75
2022/03/12 03:35:17;;;;;;;13.80;9.70;;;;;;;;;;5054988;28;20409;-76
2022/03/12 03:37:43;;;;;;;17.37;10.43;;;;;;;;;;5054857;28;20879;-76
2022/03/12 03:40:10;;;;;;;15.93;10.00;;;;;;;;;;5054799;28;20413;-76
2022/03/12 03:42:36;;;;;;;21.13;10.73;;;;;;;;;;5054647;28;20411;-75
2022/03/12 03:45:02;;;;;;;16.63;10.03;;;;;;;;;;5054775;28;20439;-76
2022/03/12 03:47:29;;;;;;;16.23;9.70;;;;;;;;;;5054643;28;20408;-75
2022/03/12 03:49:55;;;;;;;15.73;10.23;;;;;;;;;;5054317;28;20962;-75
2022/03/12 03:52:21;;;;;;;16.00;9.90;;;;;;;;;;5053106;28;20498;-75
2022/03/12 03:54:47;;;;;;;18.43;10.27;;;;;;;;;;5054502;28;20564;-75
2022/03/12 03:57:17;;;;;;;17.60;10.13;;;;;;;;;;5054439;28;20498;-75
2022/03/12 03:59:43;;;;;;;15.20;9.73;;;;;;;;;;5054445;28;20494;-76
2022/03/12 04:02:09;;;;;;;15.70;10.80;;;;;;;;;;5053100;28;20409;-75
2022/03/12 04:04:38;;;;;;;17.10;10.87;;;;;;;;;;5054197;28;20454;-66
2022/03/12 04:07:05;;;;;;;15.30;9.47;;;;;;;;;;5054274;28;20396;-75
2022/03/12 04:09:31;;;;;;;19.20;11.33;;;;;;;;;;5054117;28;20488;-62
2022/03/12 04:11:57;;;;;;;14.60;9.13;;;;;;;;;;5052894;28;20413;-63
2022/03/12 04:14:25;;;;;;;14.63;10.00;;;;;;;;;;5054236;28;20463;-62
2022/03/12 04:16:51;;;;;;;13.53;9.80;;;;;;;;;;5054069;28;20430;-76
2022/03/12 04:19:18;;;;;;;15.17;11.23;;;;;;;;;;5053918;28;20430;-76
2022/03/12 04:21:45;;;;;;;14.13;9.50;;;;;;;;;;5053968;28;20414;-76
2022/03/12 04:24:13;;;;;;;15.23;10.30;;;;;;;;;;5053983;28;20889;-73
2022/03/12 04:26:40;;;;;;;14.50;10.33;;;;;;;;;;5053882;28;20398;-75
2022/03/12 04:29:09;;;;;;;13.80;9.37;;;;;;;;;;5053633;28;20471;-75
2022/03/12 04:31:35;;;;;;;15.47;10.20;;;;;;;;;;5053118;28;20440;-75
2022/03/12 04:34:01;;;;;;;17.97;10.20;;;;;;;;;;5053619;28;20414;-75
2022/03/12 04:36:28;;;;;;;14.30;10.10;;;;;;;;;;5053629;28;20414;-71
2022/03/12 04:38:54;;;;;;;17.07;9.60;;;;;;;;;;5053645;28;20413;-75
2022/03/12 04:41:20;;;;;;;13.77;9.27;;;;;;;;;;5053658;28;20415;-68
2022/03/12 04:43:48;;;;;;;15.90;9.40;;;;;;;;;;5053590;28;20848;-75
2022/03/12 04:46:15;;;;;;;13.57;9.20;;;;;;;;;;5053603;28;20491;-76
2022/03/12 04:48:41;;;;;;;18.53;9.93;;;;;;;;;;5053363;28;20522;-75
2022/03/12 04:51:07;;;;;;;18.60;10.20;;;;;;;;;;5053441;28;20509;-75
2022/03/12 04:53:34;;;;;;;15.73;9.70;;;;;;;;;;5053510;28;20389;-76
2022/03/12 04:56:00;;;;;;;19.83;9.90;;;;;;;;;;5053375;28;20405;-75
2022/03/12 04:58:27;;;;;;;15.53;9.40;;;;;;;;;;5053492;28;20463;-76
2022/03/12 05:00:53;;;;;;;17.50;9.90;;;;;;;;;;5051987;28;20408;-77
2022/03/12 05:03:21;;;;;;;15.60;10.47;;;;;;;;;;5053270;28;20399;-74
2022/03/12 05:05:48;;;;;;;15.97;9.80;;;;;;;;;;5053357;28;20411;-73
2022/03/12 05:08:20;;;;;;;16.30;9.47;;;;;;;;;;5053238;28;20411;-75
2022/03/12 05:10:51;;;;;;;18.80;9.60;;;;;;;;;;5053298;28;20439;-76
2022/03/12 05:13:23;;;;;;;18.53;9.73;;;;;;;;;;5053390;28;20749;-75
2022/03/12 05:15:53;;;;;;;18.70;10.40;;;;;;;;;;5053298;28;20401;-71
2022/03/12 05:18:20;;;;;;;13.33;8.70;;;;;;;;;;5053205;28;20403;-71
2022/03/12 05:20:46;;;;;;;12.30;8.80;;;;;;;;;;5053045;28;20430;-74
2022/03/12 05:23:13;;;;;;;12.97;9.07;;;;;;;;;;5053077;28;20465;-64
2022/03/12 05:25:41;;;;;;;15.73;9.37;;;;;;;;;;5053057;28;20409;-74
2022/03/12 05:28:08;;;;;;;14.30;8.83;;;;;;;;;;5053166;28;20416;-74
2022/03/12 05:30:34;;;;;;;12.53;8.73;;;;;;;;;;5052811;28;20466;-68
2022/03/12 05:33:00;;;;;;;12.80;8.67;;;;;;;;;;5053044;28;20447;-68
2022/03/12 05:35:27;;;;;;;15.27;9.17;;;;;;;;;;5053013;28;20413;-65
2022/03/12 05:37:53;;;;;;;12.40;8.50;;;;;;;;;;5053057;28;20479;-67
2022/03/12 05:40:25;;;;;;;12.50;7.90;;;;;;;;;;5052980;28;20423;-74
2022/03/12 05:42:53;;;;;;;15.10;9.20;;;;;;;;;;5053144;28;20465;-71
2022/03/12 05:45:19;;;;;;;12.87;9.00;;;;;;;;;;5057081;28;20906;-65
2022/03/12 05:47:47;;;;;;;14.07;9.13;;;;;;;;;;5056906;28;20900;-69
2022/03/12 05:50:14;;;;;;;14.03;9.00;;;;;;;;;;5056712;28;20974;-64
2022/03/12 05:52:41;;;;;;;13.57;9.40;;;;;;;;;;5056687;28;20880;-75
2022/03/12 05:55:08;;;;;;;14.47;9.10;;;;;;;;;;5056847;28;20445;-62
2022/03/12 05:57:35;;;;;;;11.87;7.73;;;;;;;;;;5056828;28;20454;-62
2022/03/12 06:00:02;;;;;;;13.07;8.73;;;;;;;;;;5056562;28;20420;-62
2022/03/12 06:02:29;;;;;;;18.43;8.73;;;;;;;;;;5056693;28;20442;-62
2022/03/12 06:04:58;;;;;;;16.93;8.37;;;;;;;;;;5056466;28;20457;-75
2022/03/12 06:07:25;;;;;;;15.17;9.20;;;;;;;;;;5056499;28;20415;-75
2022/03/12 06:09:51;;;;;;;13.80;8.43;;;;;;;;;;5056492;28;20474;-73
2022/03/12 06:12:18;;;;;;;14.90;8.70;;;;;;;;;;5056412;28;20467;-73
2022/03/12 06:14:47;;;;;;;11.93;8.97;;;;;;;;;;5056496;28;20898;-78
2022/03/12 06:17:13;;;;;;;16.17;9.57;;;;;;;;;;5056368;28;20429;-76
2022/03/12 06:19:39;;;;;;;15.17;9.10;;;;;;;;;;5056431;28;20520;-76
2022/03/12 06:22:05;;;;;;;11.73;8.33;;;;;;;;;;5056527;28;20493;-75
2022/03/12 06:24:31;;;;;;;14.03;8.83;;;;;;;;;;5056322;28;20510;-72
2022/03/12 06:26:58;;;;;;;13.60;8.67;;;;;;;;;;5056304;28;20441;-75
2022/03/12 06:29:24;;;;;;;15.03;9.83;;;;;;;;;;5056022;28;20521;-76
2022/03/12 06:31:51;;;;;;;12.07;8.83;;;;;;;;;;5055920;28;20820;-71
2022/03/12 06:34:17;;;;;;;16.60;9.30;;;;;;;;;;5056146;28;20400;-75
2022/03/12 06:36:44;;;;;;;16.00;9.03;;;;;;;;;;5056073;28;20412;-75
2022/03/12 06:39:11;;;;;;;13.97;9.00;;;;;;;;;;5056037;28;20389;-75
2022/03/12 06:41:38;;;;;;;13.80;9.40;;;;;;;;;;5054777;28;20460;-74
2022/03/12 06:44:05;;;;;;;17.83;9.37;;;;;;;;;;5054658;28;20418;-74
2022/03/12 06:46:35;;;;;;;17.10;8.87;;;;;;;;;;5055840;28;20915;-74
2022/03/12 06:49:01;;;;;;;12.87;9.43;;;;;;;;;;5055603;28;20491;-75
2022/03/12 06:51:28;;;;;;;13.80;9.07;;;;;;;;;;5055652;28;20421;-77
2022/03/12 06:53:54;;;;;;;12.73;8.20;;;;;;;;;;5038098;28;20460;-76
2022/03/12 06:56:20;;;;;;;19.70;9.37;;;;;;;;;;5054803;28;20431;-74
2022/03/12 06:58:46;;;;;;;15.17;8.77;;;;;;;;;;5055554;28;20426;-76
2022/03/12 07:01:12;;;;;;;13.77;9.83;;;;;;;;;;5055610;28;20417;-75
2022/03/12 07:03:39;;;;;;;16.27;9.10;;;;;;;;;;5055493;28;20418;-76
2022/03/12 07:06:06;;;;;;;14.93;8.00;;;;;;;;;;5055618;28;20422;-76
2022/03/12 07:08:32;;;;;;;14.67;8.70;;;;;;;;;;5055404;28;20500;-77
2022/03/12 07:10:59;;;;;;;18.27;9.57;;;;;;;;;;5053873;28;20909;-75
2022/03/12 07:13:25;;;;;;;13.47;8.70;;;;;;;;;;5055443;28;20448;-77
2022/03/12 07:15:51;;;;;;;12.77;8.90;;;;;;;;;;5055367;28;20415;-77
2022/03/12 07:18:17;;;;;;;17.50;10.07;;;;;;;;;;5055262;28;20409;-77
2022/03/12 07:20:43;;;;;;;11.07;8.00;;;;;;;;;;5055102;28;20444;-74
2022/03/12 07:23:09;;;;;;;12.20;9.00;;;;;;;;;;5055276;28;20406;-77
2022/03/12 07:25:35;;;;;;;16.40;9.73;;;;;;;;;;5055208;28;20416;-73
2022/03/12 07:28:01;;;;;;;14.60;9.33;;;;;;;;;;5055058;28;20524;-73
2022/03/12 07:30:27;;;;;;;14.77;9.10;;;;;;;;;;5054959;28;20564;-75
2022/03/12 07:32:53;;;;;;;14.50;9.60;;;;;;;;;;5055092;28;20406;-78
2022/03/12 07:35:20;;;;;;;14.40;9.10;;;;;;;;;;5054958;28;20406;-76
2022/03/12 07:37:46;;;;;;;13.10;8.67;;;;;;;;;;5054774;28;20944;-75
2022/03/12 07:40:14;;;;;;;17.90;9.20;;;;;;;;;;5054863;28;20389;-78
2022/03/12 07:42:40;;;;;;;15.80;9.43;;;;;;;;;;5054939;28;20409;-75
2022/03/12 07:45:08;;;;;;;15.40;9.20;;;;;;;;;;5054836;28;20899;-77
2022/03/12 07:47:34;;;;;;;13.67;9.43;;;;;;;;;;5054661;28;20418;-63
2022/03/12 07:50:00;;;;;;;16.20;10.60;;;;;;;;;;5054471;28;20472;-71
2022/03/12 07:52:26;;;;;;;13.50;9.40;;;;;;;;;;5054537;28;20401;-63
2022/03/12 07:54:52;;;;;;;17.70;11.03;;;;;;;;;;5054368;28;20473;-66
2022/03/12 07:57:19;;;;;;;18.63;9.83;;;;;;;;;;5054397;28;20905;-65
2022/03/12 07:59:45;;;;;;;14.87;9.50;;;;;;;;;;5054381;28;20417;-63
2022/03/12 08:02:11;;;;;;;22.10;11.13;;;;;;;;;;5054462;28;20413;-76
2022/03/12 08:04:37;;;;;;;15.97;9.50;;;;;;;;;;5054194;28;20990;-68
2022/03/12 08:07:04;;;;;;;13.50;9.67;;;;;;;;;;5054141;28;20417;-75
2022/03/12 08:09:32;;;;;;;15.00;10.60;;;;;;;;;;5054159;28;20501;-73
2022/03/12 08:12:01;;;;;;;14.30;10.50;;;;;;;;;;5054185;28;20924;-77
2022/03/12 08:14:27;;;;;;;14.30;10.40;;;;;;;;;;5054120;28;20418;-72
2022/03/12 08:16:55;;;;;;;15.60;9.80;;;;;;;;;;5054162;28;20414;-75
2022/03/12 08:19:21;;;;;;;17.60;10.63;;;;;;;;;;5053878;28;20418;-71
2022/03/12 08:21:47;;;;;;;17.83;11.33;;;;;;;;;;5053999;28;20408;-66
2022/03/12 08:24:15;;;;;;;15.03;10.53;;;;;;;;;;5053950;28;20490;-68
2022/03/12 08:26:42;;;;;;;18.03;9.70;;;;;;;;;;5053989;28;20471;-73
2022/03/12 08:29:16;;;;;;;17.50;11.40;;;;;;;;;;5053635;28;21021;-62
2022/03/12 08:31:42;;;;;;;16.03;10.53;;;;;;;;;;5053747;28;20482;-66
2022/03/12 08:34:10;;;;;;;15.23;10.90;;;;;;;;;;5053857;28;20398;-74
2022/03/12 08:36:36;;;;;;;18.33;11.77;;;;;;;;;;5053827;28;20519;-68
2022/03/12 08:39:02;;;;;;;17.33;10.60;;;;;;;;;;5053621;28;20913;-74
2022/03/12 08:41:28;;;;;;;19.60;11.73;;;;;;;;;;5053870;28;20431;-76
2022/03/12 08:43:54;;;;;;;15.93;11.03;;;;;;;;;;5053624;28;20409;-72
2022/03/12 08:46:20;;;;;;;17.47;11.53;;;;;;;;;;5053700;28;20390;-65
2022/03/12 08:48:46;;;;;;;17.23;10.83;;;;;;;;;;5052127;28;20540;-62
2022/03/12 08:51:12;;;;;;;16.83;10.53;;;;;;;;;;5053622;28;20517;-63
2022/03/12 08:53:39;;;;;;;18.40;11.87;;;;;;;;;;5053552;28;20393;-68
2022/03/12 08:56:05;;;;;;;17.93;11.53;;;;;;;;;;5053560;28;20410;-63
2022/03/12 08:58:32;;;;;;;16.20;10.23;;;;;;;;;;5053474;28;20406;-76
2022/03/12 09:01:00;;;;;;;21.87;10.80;;;;;;;;;;5053508;28;20471;-75
2022/03/12 09:03:26;;;;;;;19.50;11.77;;;;;;;;;;5053171;28;20402;-74
2022/03/12 09:05:52;;;;;;;18.97;12.23;;;;;;;;;;5053419;28;20427;-73
2022/03/12 09:08:18;;;;;;;20.20;12.10;;;;;;;;;;5053215;28;20413;-76
2022/03/12 09:10:45;;;;;;;15.60;10.93;;;;;;;;;;5051837;28;20512;-74
2022/03/12 09:13:14;;;;;;;18.33;12.30;;;;;;;;;;5053268;28;20417;-77
2022/03/12 09:15:40;;;;;;;23.73;13.17;;;;;;;;;;5052042;28;20475;-77
2022/03/12 09:18:07;;;;;;;18.33;11.37;;;;;;;;;;5052566;28;20893;-76
2022/03/12 09:20:42;;;;;;;20.20;11.60;;;;;;;;;;5053010;28;20959;-74
2022/03/12 09:23:08;;;;;;;17.07;11.60;;;;;;;;;;5053227;28;20416;-75
2022/03/12 09:25:37;;;;;;;20.33;12.03;;;;;;;;;;5053089;28;20409;-72
2022/03/12 09:28:03;;;;;;;19.07;12.37;;;;;;;;;;5053086;28;20503;-72
2022/03/12 09:30:29;;;;;;;18.60;12.67;;;;;;;;;;5052915;28;20472;-72
2022/03/12 09:32:55;;;;;;;17.27;12.63;;;;;;;;;;5052869;28;20402;-74
2022/03/12 09:35:28;;;;;;;19.90;13.27;;;;;;;;;;5052923;28;20435;-66
2022/03/12 09:37:55;;;;;;;25.20;12.83;;;;;;;;;;5052942;28;20499;-73
2022/03/12 09:40:24;;;;;;;19.30;12.77;;;;;;;;;;5052918;28;20413;-76
2022/03/12 09:42:50;;;;;;;20.20;13.70;;;;;;;;;;5052857;28;20402;-75
2022/03/12 09:45:16;;;;;;;19.43;12.77;;;;;;;;;;5051751;28;20422;-73
2022/03/12 09:47:42;;;;;;;24.17;13.63;;;;;;;;;;5052841;28;20397;-63
2022/03/12 09:50:09;;;;;;;17.37;12.37;;;;;;;;;;5052743;28;20508;-65
2022/03/12 09:52:35;;;;;;;20.70;12.57;;;;;;;;;;5052748;28;20421;-74
2022/03/12 09:55:02;;;;;;;18.50;13.43;;;;;;;;;;5052812;28;20417;-75
2022/03/12 09:57:28;;;;;;;19.23;13.20;;;;;;;;;;5052757;28;20406;-74
2022/03/12 09:59:54;;;;;;;22.33;13.57;;;;;;;;;;5052778;28;20421;-76
2022/03/12 10:02:20;;;;;;;21.97;12.63;;;;;;;;;;5051419;28;20417;-71
2022/03/12 10:04:46;;;;;;;21.87;12.60;;;;;;;;;;5052572;28;20944;-75
2022/03/12 10:07:12;;;;;;;21.83;12.77;;;;;;;;;;5052636;28;20406;-76
2022/03/12 10:09:38;;;;;;;18.17;12.47;;;;;;;;;;5052494;28;20477;-73
2022/03/12 10:12:05;;;;;;;17.10;12.43;;;;;;;;;;5052587;28;20893;-70
2022/03/12 10:14:31;;;;;;;17.80;12.50;;;;;;;;;;5052860;28;20425;-76
2022/03/12 10:17:00;;;;;;;22.50;13.13;;;;;;;;;;5052611;28;20413;-77
2022/03/12 10:19:27;;;;;;;19.33;12.97;;;;;;;;;;5052544;28;20437;-75
2022/03/12 10:21:53;;;;;;;19.53;12.80;;;;;;;;;;5052564;28;20441;-76
2022/03/12 10:24:19;;;;;;;18.53;12.37;;;;;;;;;;5052603;28;20445;-77
2022/03/12 10:26:46;;;;;;;18.27;12.43;;;;;;;;;;5052594;28;20464;-72
2022/03/12 10:29:13;;;;;;;18.17;12.60;;;;;;;;;;5052957;28;20481;-76
2022/03/12 10:31:41;;;;;;;24.13;13.40;;;;;;;;;;5056134;28;20422;-74
2022/03/12 10:34:33;;;;;;;22.80;12.60;;;;;;;;;;5055983;28;20408;-77
2022/03/12 10:36:59;;;;;;;24.27;13.43;;;;;;;;;;5055737;28;20429;-69
2022/03/12 10:39:32;;;;;;;25.43;14.40;;;;;;;;;;5055919;28;20418;-71
2022/03/12 10:42:08;;;;;;;20.70;11.60;;;;;;;;;;5056026;28;20430;-74
2022/03/12 10:44:36;;;;;;;19.50;12.87;;;;;;;;;;5055964;28;20828;-72
2022/03/12 10:47:03;;;;;;;20.80;12.23;;;;;;;;;;5055953;28;20754;-76
2022/03/12 10:49:29;;;;;;;21.57;13.37;;;;;;;;;;5055564;28;20463;-76
2022/03/12 10:51:58;;;;;;;20.27;12.67;;;;;;;;;;5055745;28;20425;-77
2022/03/12 10:54:24;;;;;;;19.27;12.67;;;;;;;;;;5055764;28;20409;-75
2022/03/12 10:56:52;;;;;;;28.60;13.67;;;;;;;;;;5055659;28;20433;-75
2022/03/12 10:59:22;;;;;;;20.60;13.30;;;;;;;;;;5055709;28;20493;-77
2022/03/12 11:01:49;;;;;;;20.33;13.10;;;;;;;;;;5055765;28;20406;-77
2022/03/12 11:04:17;;;;;;;21.17;13.67;;;;;;;;;;5055276;28;20453;-76
2022/03/12 11:06:43;;;;;;;20.10;13.30;;;;;;;;;;5054354;28;20417;-77
2022/03/12 11:09:12;;;;;;;20.63;13.20;;;;;;;;;;5055298;28;20464;-75
2022/03/12 11:11:39;;;;;;;21.17;12.20;;;;;;;;;;5055334;28;20489;-76
2022/03/12 11:14:06;;;;;;;20.60;11.80;;;;;;;;;;5055420;28;20420;-77
2022/03/12 11:16:33;;;;;;;19.73;12.27;;;;;;;;;;5054064;28;20404;-78
2022/03/12 11:19:11;;;;;;;23.63;13.50;;;;;;;;;;5055122;28;20773;-77
2022/03/12 11:21:41;;;;;;;23.97;13.53;;;;;;;;;;5054252;28;20758;-74
2022/03/12 11:24:21;;;;;;;20.70;13.27;;;;;;;;;;5055235;28;20420;-71
2022/03/12 11:26:55;;;;;;;20.17;12.93;;;;;;;;;;5055254;28;20406;-75
2022/03/12 11:29:22;;;;;;;17.07;11.17;;;;;;;;;;5054919;28;20457;-76
2022/03/12 11:31:50;;;;;;;18.73;12.40;;;;;;;;;;5054740;28;20988;-76
2022/03/12 11:34:27;;;;;;;20.33;12.67;;;;;;;;;;5054881;28;20459;-75
2022/03/12 11:36:56;;;;;;;20.50;13.67;;;;;;;;;;5055028;28;20413;-78
2022/03/12 11:39:36;;;;;;;17.53;12.63;;;;;;;;;;5054875;28;20412;-76
2022/03/12 11:42:17;;;;;;;20.50;13.07;;;;;;;;;;5054409;28;20412;-76
2022/03/12 11:44:59;;;;;;;18.53;12.30;;;;;;;;;;5054783;28;20412;-76
2022/03/12 11:47:26;;;;;;;17.50;12.10;;;;;;;;;;5053492;28;20982;-74
2022/03/12 11:49:53;;;;;;;17.60;11.17;;;;;;;;;;5054584;28;20555;-75
2022/03/12 11:52:20;;;;;;;19.30;11.50;;;;;;;;;;5054590;28;20492;-75
2022/03/12 11:54:46;;;;;;;14.40;10.03;;;;;;;;;;5054497;28;20414;-75
2022/03/12 11:57:22;;;;;;;16.90;11.20;;;;;;;;;;5054562;28;20479;-76
2022/03/12 11:59:48;;;;;;;13.50;9.30;;;;;;;;;;5054452;28;20433;-76
2022/03/12 12:02:35;;;;;;;16.93;10.30;;;;;;;;;;5054510;28;20978;-76
2022/03/12 12:05:10;;;;;;;16.20;11.13;;;;;;;;;;5053019;28;20482;-76
2022/03/12 12:07:36;;;;;;;16.93;11.27;;;;;;;;;;5054765;28;20783;-76
2022/03/12 12:10:24;;;;;;;15.53;10.23;;;;;;;;;;5054740;28;20517;-77
2022/03/12 12:12:51;;;;;;;13.67;9.57;;;;;;;;;;5053712;28;20422;-76
2022/03/12 12:15:20;;;;;;;14.90;9.43;;;;;;;;;;5053037;28;20425;-76
2022/03/12 12:17:46;;;;;;;15.83;10.50;;;;;;;;;;5054213;28;20405;-77
2022/03/12 12:20:16;;;;;;;16.70;10.93;;;;;;;;;;5054055;28;20885;-75
2022/03/12 12:22:43;;;;;;;14.93;9.57;;;;;;;;;;5054084;28;20482;-76
2022/03/12 12:25:09;;;;;;;17.00;10.23;;;;;;;;;;5053931;28;20410;-64
2022/03/12 12:27:50;;;;;;;15.50;10.27;;;;;;;;;;5052786;28;20476;-64
2022/03/12 12:30:25;;;;;;;15.30;9.60;;;;;;;;;;5052471;28;20520;-63
2022/03/12 12:32:52;;;;;;;16.73;10.23;;;;;;;;;;5053871;28;20412;-66
2022/03/12 12:35:19;;;;;;;15.70;8.90;;;;;;;;;;5053751;28;20919;-62
2022/03/12 12:37:51;;;;;;;18.40;11.20;;;;;;;;;;5053724;28;20394;-63
2022/03/12 12:40:23;;;;;;;16.27;11.40;;;;;;;;;;5053741;28;20416;-66
2022/03/12 12:42:50;;;;;;;16.00;11.80;;;;;;;;;;5053794;28;20462;-63
2022/03/12 12:45:17;;;;;;;18.47;10.90;;;;;;;;;;5053617;28;20409;-63
2022/03/12 12:47:44;;;;;;;16.53;11.00;;;;;;;;;;5053492;28;20398;-63
2022/03/12 12:50:21;;;;;;;18.70;11.60;;;;;;;;;;5053458;28;20484;-64
2022/03/12 12:53:06;;;;;;;15.47;11.13;;;;;;;;;;5052543;28;20413;-68
2022/03/12 12:55:34;;;;;;;13.40;9.33;;;;;;;;;;5053503;28;20892;-74
2022/03/12 12:58:00;;;;;;;15.60;10.27;;;;;;;;;;5053297;28;20772;-75
2022/03/12 13:00:37;;;;;;;13.97;10.17;;;;;;;;;;5053441;28;20974;-64
2022/03/12 13:03:08;;;;;;;15.63;9.97;;;;;;;;;;5052095;28;20417;-64
2022/03/12 13:05:52;;;;;;;21.33;11.00;;;;;;;;;;5053360;28;21027;-64
2022/03/12 13:08:21;;;;;;;18.87;10.70;;;;;;;;;;5053274;28;20734;-66
2022/03/12 13:10:47;;;;;;;14.73;10.00;;;;;;;;;;5053012;28;20523;-63
2022/03/12 13:13:13;;;;;;;15.03;11.13;;;;;;;;;;5035684;28;20485;-64
2022/03/12 13:15:40;;;;;;;14.30;10.27;;;;;;;;;;5051982;28;20432;-65
2022/03/12 13:18:21;;;;;;;20.90;11.87;;;;;;;;;;5053111;28;20405;-65
2022/03/12 13:20:47;;;;;;;16.83;11.10;;;;;;;;;;5053224;28;20414;-65
2022/03/12 13:23:37;;;;;;;11.80;9.33;;;;;;;;;;5053228;28;21023;-65
2022/03/12 13:26:03;;;;;;;12.10;7.70;;;;;;;;;;5048989;28;20429;-64
2022/03/12 13:28:39;;;;;;;12.03;8.03;;;;;;;;;;5052962;28;20866;-64
2022/03/12 13:31:14;;;;;;;11.67;8.50;;;;;;;;;;5052030;28;20428;-64
2022/03/12 13:33:40;;;;;;;11.80;8.20;;;;;;;;;;5052964;28;20416;-70
2022/03/12 13:36:06;;;;;;;12.17;8.77;;;;;;;;;;5051887;28;20406;-65
2022/03/12 13:38:32;;;;;;;13.10;8.40;;;;;;;;;;5052898;28;20414;-65
2022/03/12 13:40:58;;;;;;;11.57;8.27;;;;;;;;;;5053014;28;20398;-65
2022/03/12 13:43:25;;;;;;;9.30;7.40;;;;;;;;;;5052864;28;20409;-64
2022/03/12 13:46:00;;;;;;;10.57;8.07;;;;;;;;;;5053058;28;20398;-63
2022/03/12 13:48:28;;;;;;;12.70;7.73;;;;;;;;;;5052995;28;20412;-72
2022/03/12 13:50:57;;;;;;;14.03;9.00;;;;;;;;;;5052769;28;20572;-74
2022/03/12 13:53:30;;;;;;;12.73;10.60;;;;;;;;;;5052877;28;20414;-70
2022/03/12 13:56:04;;;;;;;11.10;8.10;;;;;;;;;;5051653;28;20413;-71
2022/03/12 13:58:30;;;;;;;13.10;8.60;;;;;;;;;;5052660;28;20412;-71
2022/03/12 14:01:00;;;;;;;10.90;7.90;;;;;;;;;;5052788;28;20792;-70
2022/03/12 14:03:29;;;;;;;13.30;9.37;;;;;;;;;;5051396;28;20416;-69
2022/03/12 14:05:56;;;;;;;13.53;8.17;;;;;;;;;;5056338;28;20417;-76
2022/03/12 14:08:24;;;;;;;11.10;7.90;;;;;;;;;;5056806;28;20410;-70
2022/03/12 14:10:50;;;;;;;12.87;8.30;;;;;;;;;;5056602;28;20477;-73
2022/03/12 14:13:16;;;;;;;10.37;7.77;;;;;;;;;;5056666;28;20404;-73
2022/03/12 14:15:43;;;;;;;12.53;8.87;;;;;;;;;;5056643;28;20551;-72
2022/03/12 14:18:10;;;;;;;9.77;8.23;;;;;;;;;;5056168;28;20441;-73
2022/03/12 14:20:42;;;;;;;13.50;8.30;;;;;;;;;;5056265;28;20423;-70
2022/03/12 14:23:08;;;;;;;14.20;7.87;;;;;;;;;;5055087;28;20420;-73
2022/03/12 14:25:35;;;;;;;10.70;8.50;;;;;;;;;;5055131;28;20396;-73